Time;durP1;ratioP1;P1;durP2;ratioP2;P2;SDS_P1;SDS_P2;PMS_P1;PMS_P2;Temp;Humidity;BMP_temperature;BMP_pressure;BME280_temperature;BME280_humidity;BME280_pressure;Samples;Min_cycle;Max_cycle;Signal;HPM_P1;HPM_P2
2022/04/12 00:01:32;;;;;;;11.38;4.10;;;;;;;2.59;64.31;101015.78;18624144;31;20106;-63
2022/04/12 00:11:36;;;;;;;11.30;5.80;;;;;;;2.52;64.36;101006.94;18624274;31;20349;-63
2022/04/12 00:21:40;;;;;;;32.25;15.38;;;;;;;2.84;64.32;101017.63;18623368;31;20118;-63
2022/04/12 00:31:43;;;;;;;38.13;16.50;;;;;;;2.60;63.27;101005.56;18622253;31;20096;-63
2022/04/12 00:41:48;;;;;;;21.90;8.52;;;;;;;2.71;64.03;101010.25;18621910;31;20147;-63
2022/04/12 00:51:52;;;;;;;23.15;9.82;;;;;;;2.97;63.19;101000.09;18620946;31;20096;-63
2022/04/12 01:01:57;;;;;;;16.23;8.70;;;;;;;2.64;64.77;101001.41;18630545;31;20118;-63
2022/04/12 01:12:09;;;;;;;22.50;8.43;;;;;;;2.48;65.17;100993.03;18629614;31;20096;-63
2022/04/12 01:22:14;;;;;;;;;;;;;;;2.43;65.24;100996.25;18630018;31;20366;-63
2022/04/12 01:32:18;;;;;;;7.90;3.75;;;;;;;2.24;66.51;100989.47;18614861;31;19976;-63
2022/04/12 01:42:22;;;;;;;9.27;4.65;;;;;;;1.74;66.37;100983.13;18628805;31;20148;-63
2022/04/12 01:52:26;;;;;;;11.02;4.60;;;;;;;2.23;65.86;100986.00;18628424;31;20095;-64
2022/04/12 02:02:29;;;;;;;8.30;4.45;;;;;;;2.43;65.64;100984.25;18628777;31;20104;-63
2022/04/12 02:12:34;;;;;;;8.75;4.43;;;;;;;2.55;66.78;100990.72;18628138;31;20092;-63
2022/04/12 02:22:37;;;;;;;9.23;4.40;;;;;;;2.45;65.25;100994.62;18627835;31;20185;-63
2022/04/12 02:32:42;;;;;;;7.97;4.70;;;;;;;2.62;64.70;100988.44;18627471;31;20088;-63
2022/04/12 02:42:45;;;;;;;8.15;3.90;;;;;;;2.58;66.39;100989.16;18627589;31;20175;-63
2022/04/12 02:52:50;;;;;;;8.55;4.87;;;;;;;3.00;65.54;100993.34;18627048;31;20111;-63
2022/04/12 03:02:53;;;;;;;8.45;4.60;;;;;;;3.09;65.43;100991.94;18627374;31;20442;-64
2022/04/12 03:12:57;;;;;;;12.68;5.50;;;;;;;3.17;66.33;101001.72;18626046;31;20100;-63
2022/04/12 03:23:01;;;;;;;11.73;5.50;;;;;;;3.45;66.28;101010.50;18626542;31;20164;-64
2022/04/12 03:33:05;;;;;;;12.77;5.12;;;;;;;3.30;67.09;101008.22;18627018;31;20107;-64
2022/04/12 03:43:08;;;;;;;8.98;4.57;;;;;;;3.39;66.53;101002.50;18625583;31;20091;-63
2022/04/12 03:53:13;;;;;;;13.65;5.35;;;;;;;3.43;65.57;101012.16;18624881;31;20494;-63
2022/04/12 04:03:17;;;;;;;10.63;5.05;;;;;;;3.24;66.19;101017.44;18624236;31;20103;-63
2022/04/12 04:13:24;;;;;;;10.95;4.68;;;;;;;3.22;65.98;101031.97;18623580;31;20487;-63
2022/04/12 04:23:28;;;;;;;13.70;6.05;;;;;;;2.72;66.75;101030.06;18613375;31;20483;-64
2022/04/12 04:33:33;;;;;;;12.13;4.93;;;;;;;2.78;66.62;101040.63;18565945;31;20170;-63
2022/04/12 04:43:36;;;;;;;13.15;5.37;;;;;;;2.95;65.91;101045.59;18567809;31;20392;-63
2022/04/12 04:53:42;;;;;;;15.27;6.80;;;;;;;3.66;65.70;101048.25;18588283;31;20095;-63
2022/04/12 05:03:46;;;;;;;14.63;5.68;;;;;;;4.42;65.45;101055.16;18614015;31;20116;-63
2022/04/12 05:13:50;;;;;;;8.98;4.32;;;;;;;5.50;58.55;101068.03;18562564;32;20092;-64
2022/04/12 05:23:53;;;;;;;7.45;3.60;;;;;;;5.82;58.79;101072.38;18565067;31;20168;-64
2022/04/12 05:33:58;;;;;;;9.80;4.72;;;;;;;6.54;57.25;101067.37;18558744;31;20108;-64
2022/04/12 05:44:01;;;;;;;9.52;4.85;;;;;;;7.22;55.54;101083.69;18605532;31;20409;-64
2022/04/12 05:54:06;;;;;;;11.88;4.68;;;;;;;9.04;50.47;101075.81;18610792;31;20100;-63
2022/04/12 06:04:09;;;;;;;9.52;3.78;;;;;;;11.26;45.15;101070.31;18598541;31;20110;-64
2022/04/12 06:14:14;;;;;;;9.50;3.35;;;;;;;13.14;39.06;101077.66;18584526;31;20153;-64
2022/04/12 06:24:18;;;;;;;6.62;2.97;;;;;;;15.29;34.27;101082.50;18564684;32;20096;-64
2022/04/12 06:34:23;;;;;;;9.65;2.87;;;;;;;16.57;30.54;101073.75;18561796;32;20111;-65
2022/04/12 06:44:26;;;;;;;6.12;2.80;;;;;;;18.91;27.67;101080.34;18605572;31;20137;-65
2022/04/12 06:54:30;;;;;;;7.35;3.00;;;;;;;19.96;25.91;101086.28;18565976;31;20092;-65
2022/04/12 07:04:34;;;;;;;4.93;2.67;;;;;;;21.62;22.21;101083.34;18581090;31;20099;-65
2022/04/12 07:14:38;;;;;;;7.50;3.00;;;;;;;22.78;21.26;101077.06;18580944;31;20102;-65
2022/04/12 07:24:42;;;;;;;6.25;3.05;;;;;;;24.99;18.12;101082.78;18614177;31;20108;-65
2022/04/12 07:34:47;;;;;;;5.75;2.50;;;;;;;24.46;18.95;101093.41;18592584;31;20172;-65
2022/04/12 07:44:50;;;;;;;6.22;3.00;;;;;;;22.39;21.02;101088.41;18577970;31;123063;-65
2022/04/12 07:54:55;;;;;;;6.43;2.72;;;;;;;20.31;23.63;101099.34;18573862;31;20122;-64
2022/04/12 08:04:58;;;;;;;7.18;3.20;;;;;;;17.60;27.99;101098.31;18598259;31;20135;-64
2022/04/12 08:15:05;;;;;;;5.97;2.80;;;;;;;16.66;28.38;101106.16;18622032;31;20107;-64
2022/04/12 08:25:10;;;;;;;5.80;2.60;;;;;;;15.97;29.86;101114.16;18609696;31;20697;-64
2022/04/12 08:35:15;;;;;;;5.57;2.53;;;;;;;16.14;28.55;101111.28;18592657;31;20135;-64
2022/04/12 08:45:18;;;;;;;4.65;2.28;;;;;;;15.89;29.47;101106.34;18588068;31;20096;-64
2022/04/12 08:55:22;;;;;;;4.47;1.70;;;;;;;16.55;29.29;101101.03;18623058;31;20083;-64
2022/04/12 09:05:27;;;;;;;7.00;1.98;;;;;;;15.57;27.99;101103.22;18606446;31;20133;-64
2022/04/12 09:15:42;;;;;;;4.07;1.90;;;;;;;16.95;26.93;101091.59;18579399;31;20141;-64
2022/04/12 09:26:05;;;;;;;5.12;2.45;;;;;;;17.71;25.73;101091.03;18560756;31;20189;-64
2022/04/12 09:36:11;;;;;;;5.40;2.00;;;;;;;17.01;24.88;101089.75;18614681;31;20137;-64
2022/04/12 09:46:17;;;;;;;2.03;1.48;;;;;;;17.19;25.07;101066.56;18603063;31;20145;-64
2022/04/12 09:56:23;;;;;;;3.83;1.48;;;;;;;19.73;21.90;101044.56;18609010;31;20096;-65
2022/04/12 10:06:28;;;;;;;4.45;1.80;;;;;;;21.68;19.86;101034.47;18629619;31;20114;-65
2022/04/12 10:16:34;;;;;;;6.05;1.75;;;;;;;23.89;17.48;101027.69;18605803;31;20096;-66
2022/04/12 10:26:37;;;;;;;5.35;2.17;;;;;;;19.92;20.61;101026.34;18563367;31;20097;-64
2022/04/12 10:37:04;;;;;;;3.83;1.70;;;;;;;20.13;20.66;101016.00;18562449;31;20141;-65
2022/04/12 10:47:29;;;;;;;5.70;2.00;;;;;;;19.60;21.88;101004.34;18562767;31;20107;-64
2022/04/12 10:57:34;;;;;;;5.87;2.25;;;;;;;18.41;22.24;100997.00;18562778;32;20132;-64
2022/04/12 11:07:38;;;;;;;5.65;2.15;;;;;;;17.58;24.29;100989.22;18553169;31;20641;-64
2022/04/12 11:17:43;;;;;;;4.00;2.10;;;;;;;17.61;25.07;100983.91;18554362;31;20461;-64
2022/04/12 11:27:46;;;;;;;4.25;2.10;;;;;;;17.96;25.82;100974.25;18564505;31;20111;-65
2022/04/12 11:37:51;;;;;;;5.18;1.90;;;;;;;17.95;26.03;100955.84;18566513;31;20115;-64
2022/04/12 11:47:58;;;;;;;5.22;2.00;;;;;;;17.71;25.58;100944.94;18606115;31;20246;-64
2022/04/12 11:58:02;;;;;;;6.93;2.78;;;;;;;17.98;24.98;100946.06;18574195;31;20113;-63
2022/04/12 12:08:05;;;;;;;4.53;1.90;;;;;;;18.52;24.91;100935.06;18546313;32;20118;-63
2022/04/12 12:18:10;;;;;;;5.78;2.05;;;;;;;19.01;23.85;100929.31;18571336;31;20130;-64
2022/04/12 12:28:15;;;;;;;7.53;2.25;;;;;;;18.07;23.43;100926.50;18587833;31;20092;-64
2022/04/12 12:38:27;;;;;;;5.95;2.50;;;;;;;18.53;24.65;100913.84;18608613;31;20148;-64
2022/04/12 12:48:31;;;;;;;6.40;2.40;;;;;;;17.96;23.25;100915.31;18623296;31;20188;-64
2022/04/12 12:58:36;;;;;;;6.60;2.22;;;;;;;17.99;23.31;100899.38;18633001;31;20119;-64
2022/04/12 13:08:39;;;;;;;5.97;2.30;;;;;;;19.08;22.59;100883.25;18616979;31;20116;-64
2022/04/12 13:18:44;;;;;;;4.30;2.28;;;;;;;18.67;22.19;100880.87;18631401;31;20093;-64
2022/04/12 13:28:47;;;;;;;5.82;2.10;;;;;;;18.30;21.92;100867.78;18616420;31;20108;-64
2022/04/12 13:38:52;;;;;;;4.47;1.95;;;;;;;18.70;22.52;100855.22;18616159;31;20128;-64
2022/04/12 13:48:55;;;;;;;6.03;2.25;;;;;;;17.95;22.18;100851.03;18630194;31;20106;-64
2022/04/12 13:58:59;;;;;;;3.60;1.77;;;;;;;18.50;22.59;100847.84;18629768;31;20407;-64
2022/04/12 14:09:03;;;;;;;5.40;2.08;;;;;;;19.62;22.43;100848.91;18629442;31;20626;-64
2022/04/12 14:19:08;;;;;;;7.20;2.40;;;;;;;19.31;21.78;100834.91;18614795;31;20100;-64
2022/04/12 14:29:12;;;;;;;6.62;2.33;;;;;;;17.99;22.54;100830.69;18628105;31;20103;-65
2022/04/12 14:39:16;;;;;;;7.65;2.55;;;;;;;18.71;22.95;100819.94;18612720;31;20168;-64
2022/04/12 14:49:20;;;;;;;5.00;2.12;;;;;;;18.64;22.35;100823.66;18627931;31;20100;-64
2022/04/12 14:59:24;;;;;;;6.65;2.65;;;;;;;19.14;21.52;100827.50;18611284;31;20110;-64
2022/04/12 15:09:28;;;;;;;7.00;2.58;;;;;;;18.81;22.10;100827.59;18626872;31;20100;-64
2022/04/12 15:19:32;;;;;;;6.75;2.72;;;;;;;18.62;23.26;100820.19;18612261;31;20142;-64
2022/04/12 15:29:35;;;;;;;7.50;2.75;;;;;;;18.96;21.71;100827.09;18612974;31;20101;-64
2022/04/12 15:39:40;;;;;;;6.82;2.70;;;;;;;17.61;22.92;100817.59;18553938;32;20088;-64
2022/04/12 15:49:43;;;;;;;5.72;2.80;;;;;;;18.69;22.69;100811.19;18561139;32;20140;-64
2022/04/12 15:59:53;;;;;;;6.55;2.45;;;;;;;17.99;23.64;100814.84;18560642;32;20108;-64
2022/04/12 16:09:57;;;;;;;8.20;2.97;;;;;;;18.53;22.82;100825.75;18561614;32;20375;-64
2022/04/12 16:20:02;;;;;;;7.90;2.62;;;;;;;18.28;22.81;100827.31;18544915;32;20106;-64
2022/04/12 16:30:06;;;;;;;6.78;2.62;;;;;;;18.20;22.37;100812.56;18559268;31;20100;-64
2022/04/12 16:40:12;;;;;;;6.20;2.95;;;;;;;18.18;22.83;100820.56;18622534;31;20092;-64
2022/04/12 16:50:16;;;;;;;6.12;2.12;;;;;;;17.99;23.25;100835.97;18601343;31;20092;-64
2022/04/12 17:00:21;;;;;;;5.97;2.15;;;;;;;17.65;24.90;100837.72;18541727;32;20096;-64
2022/04/12 17:10:25;;;;;;;7.32;2.60;;;;;;;17.41;25.35;100828.62;18541553;31;20165;-64
2022/04/12 17:20:30;;;;;;;5.12;2.20;;;;;;;16.96;26.52;100832.25;18542609;32;20119;-65
2022/04/12 17:30:34;;;;;;;4.37;1.92;;;;;;;16.18;31.66;100844.34;18541150;32;20115;-64
2022/04/12 17:40:38;;;;;;;5.97;1.98;;;;;;;15.40;33.31;100846.47;18555553;31;20099;-64
2022/04/12 17:50:42;;;;;;;4.62;1.67;;;;;;;14.68;35.88;100845.66;18616366;31;20106;-64
2022/04/12 18:00:46;;;;;;;6.62;2.03;;;;;;;13.98;36.22;100854.25;18605210;31;20100;-64
2022/04/12 18:10:50;;;;;;;6.82;2.78;;;;;;;13.45;37.25;100862.56;18550991;31;20123;-64
2022/04/12 18:20:55;;;;;;;14.13;5.07;;;;;;;12.93;38.61;100867.16;18585290;31;20132;-64
2022/04/12 18:30:58;;;;;;;11.32;4.53;;;;;;;12.40;41.02;100890.03;18552218;32;20330;-64
2022/04/12 18:41:03;;;;;;;6.72;2.33;;;;;;;12.02;42.29;100897.94;18548127;32;20092;-64
2022/04/12 18:51:06;;;;;;;7.00;2.90;;;;;;;11.41;40.23;100911.78;18562460;32;20115;-64
2022/04/12 19:01:11;;;;;;;3.65;2.10;;;;;;;10.99;41.95;100916.84;18550593;31;20118;-64
2022/04/12 19:11:14;;;;;;;5.78;1.98;;;;;;;10.62;42.98;100925.37;18551537;31;20081;-64
2022/04/12 19:21:19;;;;;;;6.28;2.58;;;;;;;10.07;44.13;100939.72;18610921;31;20123;-64
2022/04/12 19:31:22;;;;;;;6.78;3.03;;;;;;;10.00;44.09;100947.50;18549165;31;20092;-64
2022/04/12 19:41:27;;;;;;;10.85;3.97;;;;;;;9.48;46.49;100960.88;18544989;31;20125;-64
2022/04/12 19:51:31;;;;;;;11.15;4.15;;;;;;;9.47;47.07;100964.34;18574137;31;20092;-64
2022/04/12 20:01:36;;;;;;;6.25;3.15;;;;;;;9.14;49.00;100981.34;18583552;31;20100;-64
2022/04/12 20:11:39;;;;;;;10.50;4.30;;;;;;;8.85;49.66;100968.78;18584709;31;20114;-64
2022/04/12 20:22:00;;;;;;;8.60;3.62;;;;;;;8.61;51.51;100980.56;18570591;31;20087;-62
2022/04/12 20:32:24;;;;;;;10.05;4.82;;;;;;;8.58;51.43;100988.34;18333907;32;20097;-67
2022/04/12 20:42:29;;;;;;;8.55;4.03;;;;;;;8.38;53.78;100988.88;18413604;32;20449;-66
2022/04/12 20:52:32;;;;;;;9.13;4.15;;;;;;;7.94;55.44;100994.19;18419155;32;20145;-64
2022/04/12 21:02:38;;;;;;;11.25;4.40;;;;;;;7.63;56.62;100997.97;18425910;32;20088;-64
2022/04/12 21:12:41;;;;;;;9.52;5.03;;;;;;;7.74;55.75;101002.47;18426108;32;20097;-64
2022/04/12 21:22:46;;;;;;;26.95;6.25;;;;;;;7.50;57.04;101001.16;18434059;32;20187;-65
2022/04/12 21:32:50;;;;;;;12.20;5.37;;;;;;;7.30;57.21;100988.66;18420326;32;20128;-64
2022/04/12 21:42:54;;;;;;;15.88;7.45;;;;;;;6.94;58.08;101003.44;18420000;32;20101;-64
2022/04/12 21:52:58;;;;;;;12.13;6.40;;;;;;;6.95;58.07;101014.72;18433677;32;20153;-64
2022/04/12 22:03:03;;;;;;;11.10;5.60;;;;;;;6.59;59.49;101020.81;18433925;32;20723;-64
2022/04/12 22:13:07;;;;;;;11.20;5.15;;;;;;;6.23;59.02;101025.12;18432467;32;20115;-64
2022/04/12 22:23:12;;;;;;;14.05;5.93;;;;;;;6.18;59.33;101031.88;18431576;32;20116;-64
2022/04/12 22:33:15;;;;;;;11.57;5.45;;;;;;;6.29;58.63;101040.81;18432642;32;20097;-64
2022/04/12 22:43:20;;;;;;;14.95;6.45;;;;;;;6.28;59.70;101048.56;18432517;32;20113;-64
2022/04/12 22:53:23;;;;;;;12.73;6.10;;;;;;;5.91;60.77;101045.81;18432163;32;20085;-64
2022/04/12 23:03:28;;;;;;;11.25;5.28;;;;;;;6.01;59.93;101055.59;18432163;32;20100;-64
2022/04/12 23:13:31;;;;;;;12.10;5.95;;;;;;;5.48;62.30;101064.50;18417562;32;20097;-64
2022/04/12 23:23:36;;;;;;;13.10;5.82;;;;;;;5.76;61.25;101069.59;18431582;32;20094;-64
2022/04/12 23:33:39;;;;;;;10.13;5.62;;;;;;;5.32;63.24;101070.06;18416234;32;20089;-64
2022/04/12 23:43:43;;;;;;;10.70;5.95;;;;;;;5.62;62.15;101056.25;18430846;32;20107;-64
2022/04/12 23:53:47;;;;;;;11.32;5.47;;;;;;;5.23;62.58;101065.50;18430234;32;20093;-64
